Time;durP1;ratioP1;P1;durP2;ratioP2;P2;SDS_P1;SDS_P2;PMS_P1;PMS_P2;Temp;Humidity;BMP_temperature;BMP_pressure;BME280_temperature;BME280_humidity;BME280_pressure;Samples;Min_cycle;Max_cycle;Signal;HPM_P1;HPM_P2
2022/10/12 00:01:00;;;;;;;9.10;4.00;;;;;;;9.36;nan;101273.91;5087277;28;20036;-69
2022/10/12 00:03:25;;;;;;;10.07;4.40;;;;;;;9.23;nan;101273.25;5086344;28;20032;-69
2022/10/12 00:06:09;;;;;;;10.05;3.90;;;;;;;9.13;nan;101270.53;5087072;28;20070;-69
2022/10/12 00:08:37;;;;;;;6.43;3.20;;;;;;;9.18;nan;101259.59;5077609;28;20410;-69
2022/10/12 00:11:04;;;;;;;4.20;2.20;;;;;;;9.18;nan;101270.16;5067705;28;20508;-69
2022/10/12 00:13:29;;;;;;;5.32;2.50;;;;;;;9.02;nan;101272.34;5085367;28;20036;-69
2022/10/12 00:15:55;;;;;;;6.22;2.80;;;;;;;8.93;nan;101268.63;5086160;28;20396;-69
2022/10/12 00:18:20;;;;;;;6.97;3.15;;;;;;;8.82;nan;101276.56;5066699;28;20116;-69
2022/10/12 00:20:46;;;;;;;8.95;3.42;;;;;;;8.76;nan;101271.78;5085572;28;20036;-69
2022/10/12 00:23:11;;;;;;;6.75;2.78;;;;;;;8.72;nan;101281.72;5091408;28;20031;-69
2022/10/12 00:25:38;;;;;;;8.77;3.45;;;;;;;8.63;nan;101279.84;5087463;28;20435;-69
2022/10/12 00:28:04;;;;;;;8.27;3.38;;;;;;;8.56;nan;101283.91;5081764;28;20397;-69
2022/10/12 00:30:29;;;;;;;8.00;3.45;;;;;;;8.47;nan;101283.66;5061767;28;20043;-69
2022/10/12 00:32:55;;;;;;;5.72;3.10;;;;;;;8.39;nan;101279.91;5083208;28;20032;-69
2022/10/12 00:35:21;;;;;;;5.35;2.60;;;;;;;8.33;nan;101277.75;5081923;28;20472;-69
2022/10/12 00:37:46;;;;;;;5.40;2.58;;;;;;;8.27;nan;101279.03;5086166;28;20046;-69
2022/10/12 00:40:11;;;;;;;6.57;2.95;;;;;;;8.22;nan;101283.84;5084931;28;20519;-69
2022/10/12 00:42:36;;;;;;;7.53;2.95;;;;;;;8.16;nan;101282.53;5085770;28;20043;-70
2022/10/12 00:45:02;;;;;;;4.80;2.45;;;;;;;8.10;nan;101275.06;5085370;28;20237;-69
2022/10/12 00:47:35;;;;;;;4.30;2.40;;;;;;;8.05;nan;101282.50;5084807;28;20028;-69
2022/10/12 00:50:12;;;;;;;6.05;2.90;;;;;;;7.99;nan;101281.19;5081953;28;20554;-69
2022/10/12 00:52:50;;;;;;;8.10;3.40;;;;;;;7.96;nan;101283.19;5066263;28;20047;-69
2022/10/12 00:55:18;;;;;;;7.32;3.65;;;;;;;7.92;nan;101279.13;5084759;28;20126;-69
2022/10/12 00:57:46;;;;;;;10.30;4.13;;;;;;;7.89;nan;101277.56;5083487;28;20476;-69
2022/10/12 01:00:12;;;;;;;9.13;3.40;;;;;;;7.89;nan;101282.84;5084704;28;20063;-69
2022/10/12 01:02:40;;;;;;;7.72;3.60;;;;;;;7.88;nan;101278.50;5084803;28;20032;-69
2022/10/12 01:05:07;;;;;;;6.65;3.35;;;;;;;7.90;nan;101286.31;5089800;28;20032;-69
2022/10/12 01:07:32;;;;;;;5.70;3.30;;;;;;;7.90;nan;101276.59;5088232;28;20047;-69
2022/10/12 01:09:58;;;;;;;7.07;3.00;;;;;;;7.93;nan;101276.38;5088163;28;20044;-69
2022/10/12 01:12:24;;;;;;;8.13;3.42;;;;;;;7.92;nan;101272.06;5087382;28;20448;-70
2022/10/12 01:14:49;;;;;;;8.15;3.78;;;;;;;8.01;nan;101275.81;5088242;28;20036;-69
2022/10/12 01:17:28;;;;;;;7.00;3.70;;;;;;;8.05;nan;101271.97;5087996;28;20024;-69
2022/10/12 01:20:24;;;;;;;8.43;4.03;;;;;;;8.08;nan;101274.38;5081621;28;20528;-70
2022/10/12 01:22:57;;;;;;;7.63;3.83;;;;;;;8.13;nan;101277.50;5068008;28;20063;-69
2022/10/12 01:25:47;;;;;;;10.73;3.83;;;;;;;8.17;nan;101275.44;5087707;28;20043;-69
2022/10/12 01:28:26;;;;;;;8.27;3.47;;;;;;;8.22;nan;101270.66;5080454;28;20040;-70
2022/10/12 01:31:01;;;;;;;7.65;3.72;;;;;;;8.23;nan;101275.81;5084448;28;20111;-70
2022/10/12 01:33:44;;;;;;;8.10;3.78;;;;;;;8.26;nan;101278.22;5066870;28;20435;-69
2022/10/12 01:36:30;;;;;;;6.22;3.30;;;;;;;8.34;nan;101274.16;5084868;28;20109;-70
2022/10/12 01:39:25;;;;;;;7.38;3.13;;;;;;;8.34;nan;101274.97;5081005;28;20119;-70
2022/10/12 01:41:59;;;;;;;7.55;3.33;;;;;;;8.33;nan;101267.22;5066357;28;20039;-70
2022/10/12 01:44:25;;;;;;;8.57;3.25;;;;;;;8.27;nan;101263.25;5085305;28;20127;-71
2022/10/12 01:46:53;;;;;;;8.73;3.47;;;;;;;8.24;nan;101268.75;5087708;28;20117;-71
2022/10/12 01:49:24;;;;;;;8.05;3.55;;;;;;;8.19;nan;101263.00;5093116;28;20051;-71
2022/10/12 01:52:15;;;;;;;6.03;3.17;;;;;;;8.17;nan;101267.56;5071179;28;20036;-70
2022/10/12 01:54:56;;;;;;;7.88;3.63;;;;;;;8.14;nan;101263.34;5069408;28;20271;-71
2022/10/12 01:57:34;;;;;;;6.97;3.90;;;;;;;8.15;nan;101262.41;5086235;28;20115;-70
2022/10/12 02:00:05;;;;;;;6.05;3.58;;;;;;;8.12;nan;101257.38;5087541;28;20086;-70
2022/10/12 02:03:08;;;;;;;8.65;3.30;;;;;;;8.11;nan;101258.34;5075303;28;20495;-71
2022/10/12 02:05:45;;;;;;;8.38;3.25;;;;;;;8.12;nan;101253.91;5093831;28;20079;-71
2022/10/12 02:08:26;;;;;;;5.43;3.05;;;;;;;8.10;nan;101251.38;5084388;28;20067;-70
2022/10/12 02:10:55;;;;;;;9.73;3.47;;;;;;;8.05;nan;101251.72;5087546;28;20035;-70
2022/10/12 02:13:25;;;;;;;7.95;3.28;;;;;;;8.03;nan;101255.44;5071225;28;20035;-70
2022/10/12 02:15:52;;;;;;;;;;;;;;;7.99;nan;101259.28;5070564;28;20036;-71
2022/10/12 02:18:19;;;;;;;10.27;3.60;;;;;;;7.93;nan;101251.84;5087927;28;20007;-70
2022/10/12 02:20:46;;;;;;;;;;;;;;;7.88;nan;101253.00;5088171;28;20044;-68
2022/10/12 02:23:12;;;;;;;;;;;;;;;7.82;nan;101250.84;5071671;28;19931;-68
2022/10/12 02:25:38;;;;;;;8.98;3.88;;;;;;;7.77;nan;101244.25;5088795;28;19916;-70
2022/10/12 02:28:08;;;;;;;11.43;3.92;;;;;;;7.68;nan;101244.97;5069145;28;20130;-70
2022/10/12 02:30:44;;;;;;;9.50;3.78;;;;;;;7.59;nan;101241.22;5088258;28;20173;-71
2022/10/12 02:33:31;;;;;;;10.18;4.10;;;;;;;7.48;nan;101228.00;5081297;28;20431;-71
2022/10/12 02:36:04;;;;;;;10.85;3.80;;;;;;;7.43;nan;101239.72;5082492;28;20032;-70
2022/10/12 02:38:58;;;;;;;8.63;3.53;;;;;;;7.35;nan;101233.34;5086729;28;20105;-71
2022/10/12 02:41:28;;;;;;;7.43;3.47;;;;;;;7.31;nan;101230.09;5066220;28;20176;-70
2022/10/12 02:43:59;;;;;;;9.77;3.92;;;;;;;7.28;nan;101232.97;5087818;28;20057;-70
2022/10/12 02:46:26;;;;;;;7.43;3.60;;;;;;;7.19;nan;101244.16;5087833;28;20077;-70
2022/10/12 02:48:52;;;;;;;;;;;;;;;7.10;nan;101235.13;5086773;28;20374;-68
2022/10/12 02:51:18;;;;;;;8.35;3.70;;;;;;;7.05;nan;101231.19;5088527;28;20331;-70
2022/10/12 02:53:44;;;;;;;11.82;4.28;;;;;;;7.00;nan;101234.13;5068956;28;20552;-70
2022/10/12 02:56:13;;;;;;;7.07;4.05;;;;;;;6.93;nan;101225.00;5087740;28;20485;-70
2022/10/12 02:58:42;;;;;;;8.25;3.80;;;;;;;6.92;nan;101221.56;5086237;28;20059;-69
2022/10/12 03:01:07;;;;;;;6.32;3.20;;;;;;;6.89;nan;101220.91;5068316;28;20060;-70
2022/10/12 03:03:32;;;;;;;4.72;2.97;;;;;;;6.86;nan;101223.78;5071218;28;20078;-70
2022/10/12 03:05:57;;;;;;;8.50;3.50;;;;;;;6.83;nan;101224.00;5097310;28;20047;-70
2022/10/12 03:08:23;;;;;;;8.25;4.13;;;;;;;6.76;nan;101223.59;5076147;28;20052;-70
2022/10/12 03:10:48;;;;;;;6.77;3.40;;;;;;;6.84;nan;101220.41;5088575;28;20398;-70
2022/10/12 03:13:13;;;;;;;5.07;2.90;;;;;;;6.88;nan;101227.97;5088321;28;20414;-70
2022/10/12 03:15:38;;;;;;;7.53;3.83;;;;;;;6.78;nan;101219.91;5089594;28;20036;-70
2022/10/12 03:18:04;;;;;;;7.33;3.50;;;;;;;6.80;nan;101220.66;5069344;28;20413;-70
2022/10/12 03:20:29;;;;;;;7.27;3.43;;;;;;;6.86;nan;101221.97;5073160;28;20411;-70
2022/10/12 03:22:54;;;;;;;5.83;3.10;;;;;;;6.90;nan;101222.63;5074500;28;20405;-69
2022/10/12 03:25:20;;;;;;;7.63;3.30;;;;;;;6.81;nan;101224.09;5089578;28;20127;-70
2022/10/12 03:27:45;;;;;;;;;;;;;;;6.73;nan;101224.66;5070702;28;20085;-70
2022/10/12 03:30:10;;;;;;;;;;;;;;;6.72;nan;101222.13;5089220;28;19916;-69
2022/10/12 03:32:36;;;;;;;;;;;;;;;6.69;nan;101225.81;5069345;28;19924;-70
2022/10/12 03:35:01;;;;;;;7.50;2.88;;;;;;;6.70;nan;101218.81;5086853;28;19969;-70
2022/10/12 03:37:26;;;;;;;;;;;;;;;6.70;nan;101217.00;5087258;28;20486;-69
2022/10/12 03:39:55;;;;;;;5.68;2.60;;;;;;;6.73;nan;101223.84;5087326;28;19928;-69
2022/10/12 03:42:20;;;;;;;;;;;;;;;6.75;nan;101228.03;5087344;28;20461;-70
2022/10/12 03:44:45;;;;;;;;;;;;;;;6.77;nan;101227.94;5087361;28;20011;-69
2022/10/12 03:47:10;;;;;;;9.00;3.80;;;;;;;6.78;nan;101227.81;5087063;28;19920;-71
2022/10/12 03:49:36;;;;;;;6.22;3.20;;;;;;;6.94;nan;101219.66;5066561;28;20472;-70
2022/10/12 03:52:01;;;;;;;4.03;2.87;;;;;;;7.09;nan;101228.22;5083602;28;20417;-71
2022/10/12 03:54:26;;;;;;;;;;;;;;;7.04;nan;101232.13;5086386;28;20044;-70
2022/10/12 03:56:51;;;;;;;;;;;;;;;7.04;nan;101229.50;5067655;28;19999;-68
2022/10/12 03:59:16;;;;;;;;;;;;;;;7.05;nan;101224.13;5084614;28;19931;-68
2022/10/12 04:01:42;;;;;;;7.47;3.63;;;;;;;7.04;nan;101221.63;5086488;28;19969;-70
2022/10/12 04:04:09;;;;;;;6.78;3.70;;;;;;;7.06;nan;101227.63;5066777;28;20278;-70
2022/10/12 04:06:34;;;;;;;9.73;3.70;;;;;;;7.10;nan;101226.41;5065092;28;20080;-70
2022/10/12 04:08:59;;;;;;;5.95;3.05;;;;;;;7.13;nan;101220.94;5082056;28;20064;-69
2022/10/12 04:11:25;;;;;;;7.63;3.85;;;;;;;7.12;nan;101230.59;5078135;28;20024;-70
2022/10/12 04:13:50;;;;;;;6.57;3.50;;;;;;;7.17;nan;101230.28;5086214;28;20024;-71
2022/10/12 04:16:15;;;;;;;11.48;3.70;;;;;;;7.14;nan;101236.59;5064959;28;20040;-70
2022/10/12 04:18:40;;;;;;;7.57;3.50;;;;;;;7.20;nan;101245.84;5083993;28;20038;-69
2022/10/12 04:21:11;;;;;;;7.82;3.45;;;;;;;7.22;nan;101242.16;5082609;28;20043;-70
2022/10/12 04:23:36;;;;;;;5.93;3.35;;;;;;;7.25;nan;101240.25;5081978;28;20040;-71
2022/10/12 04:26:02;;;;;;;6.05;3.35;;;;;;;7.26;nan;101239.28;5080877;28;20699;-70
2022/10/12 04:28:27;;;;;;;5.75;3.40;;;;;;;7.31;nan;101250.31;5062417;28;20047;-70
2022/10/12 04:30:52;;;;;;;6.00;3.20;;;;;;;7.35;nan;101247.34;5082148;28;20770;-70
2022/10/12 04:33:17;;;;;;;8.93;3.70;;;;;;;7.42;nan;101238.03;5061879;28;20544;-70
2022/10/12 04:35:43;;;;;;;7.43;3.10;;;;;;;7.46;nan;101243.94;5085502;28;20032;-70
2022/10/12 04:38:08;;;;;;;6.32;3.05;;;;;;;7.49;nan;101250.75;5077945;28;20294;-70
2022/10/12 04:40:33;;;;;;;6.05;3.22;;;;;;;7.53;nan;101239.91;5087992;28;20573;-69
2022/10/12 04:42:59;;;;;;;6.38;3.60;;;;;;;7.51;nan;101246.19;5078261;28;20104;-70
2022/10/12 04:45:24;;;;;;;7.65;3.53;;;;;;;7.49;nan;101242.88;5076410;28;20036;-71
2022/10/12 04:47:49;;;;;;;6.82;3.67;;;;;;;7.46;nan;101236.03;5085439;28;20032;-70
2022/10/12 04:50:15;;;;;;;7.03;3.78;;;;;;;7.45;nan;101245.69;5071150;28;20044;-68
2022/10/12 04:52:40;;;;;;;6.45;3.22;;;;;;;7.41;nan;101239.00;5068930;28;20044;-69
2022/10/12 04:55:06;;;;;;;8.55;3.95;;;;;;;7.37;nan;101244.63;5073837;28;20039;-68
2022/10/12 04:57:31;;;;;;;6.35;3.70;;;;;;;7.34;nan;101247.44;5088027;28;20036;-68
2022/10/12 04:59:56;;;;;;;6.47;3.25;;;;;;;7.32;nan;101246.75;5087768;28;20054;-67
2022/10/12 05:02:22;;;;;;;6.93;2.80;;;;;;;7.44;nan;101238.78;5086284;28;20398;-67
2022/10/12 05:04:47;;;;;;;4.97;2.40;;;;;;;7.44;nan;101245.84;5089129;28;20036;-67
2022/10/12 05:07:12;;;;;;;4.43;2.33;;;;;;;7.42;nan;101245.09;5104999;28;20312;-68
2022/10/12 05:09:38;;;;;;;5.18;2.67;;;;;;;7.39;nan;101243.53;5107040;28;20031;-67
2022/10/12 05:12:03;;;;;;;7.15;3.17;;;;;;;7.34;nan;101248.31;5086973;28;20051;-67
2022/10/12 05:14:28;;;;;;;7.40;2.97;;;;;;;7.27;nan;101243.59;5087377;28;20518;-67
2022/10/12 05:16:53;;;;;;;5.65;3.05;;;;;;;7.20;nan;101245.84;5087079;28;20089;-67
2022/10/12 05:19:19;;;;;;;4.93;2.75;;;;;;;7.15;nan;101237.44;5087445;28;20067;-68
2022/10/12 05:21:44;;;;;;;4.10;2.40;;;;;;;7.14;nan;101246.28;5078291;28;20032;-68
2022/10/12 05:24:09;;;;;;;6.68;2.75;;;;;;;7.16;nan;101245.22;5106257;28;20389;-67
2022/10/12 05:26:35;;;;;;;5.18;2.47;;;;;;;7.20;nan;101238.78;5096599;28;20040;-68
2022/10/12 05:29:00;;;;;;;5.78;3.13;;;;;;;7.23;nan;101238.56;5073167;28;20032;-67
2022/10/12 05:31:25;;;;;;;6.18;3.00;;;;;;;7.26;nan;101245.38;5091352;28;20180;-68
2022/10/12 05:33:50;;;;;;;5.40;2.70;;;;;;;7.29;nan;101246.94;5091763;28;20039;-68
2022/10/12 05:36:16;;;;;;;7.53;2.80;;;;;;;7.28;nan;101242.66;5091012;28;20463;-67
2022/10/12 05:38:41;;;;;;;5.20;3.20;;;;;;;7.27;nan;101251.47;5091285;28;20032;-67
2022/10/12 05:41:06;;;;;;;5.00;2.65;;;;;;;7.25;nan;101251.63;5091172;28;20089;-67
2022/10/12 05:43:31;;;;;;;8.10;3.13;;;;;;;7.21;nan;101244.88;5091131;28;20067;-67
2022/10/12 05:45:57;;;;;;;8.93;3.50;;;;;;;7.21;nan;101247.53;5090384;28;20036;-68
2022/10/12 05:48:23;;;;;;;7.93;2.92;;;;;;;7.19;nan;101252.88;5096637;28;20035;-68
2022/10/12 05:50:52;;;;;;;5.88;3.10;;;;;;;7.17;nan;101254.78;5105773;28;20039;-68
2022/10/12 05:53:17;;;;;;;9.43;4.20;;;;;;;7.15;nan;101261.09;5091072;28;20032;-68
2022/10/12 05:55:57;;;;;;;7.20;3.80;;;;;;;7.09;nan;101258.94;5090870;28;20573;-68
2022/10/12 05:58:23;;;;;;;9.57;4.18;;;;;;;7.02;nan;101259.38;5085440;28;20044;-67
2022/10/12 06:00:50;;;;;;;9.02;4.38;;;;;;;6.96;nan;101259.81;5091284;28;20030;-67
2022/10/12 06:03:15;;;;;;;7.07;3.58;;;;;;;6.92;nan;101268.88;5090397;28;20074;-67
2022/10/12 06:05:41;;;;;;;5.50;3.13;;;;;;;6.90;nan;101269.94;5093776;28;20047;-68
2022/10/12 06:08:07;;;;;;;6.05;3.08;;;;;;;6.87;nan;101273.63;5090109;28;20302;-67
2022/10/12 06:10:34;;;;;;;6.40;3.30;;;;;;;6.85;nan;101272.06;5091110;28;20180;-67
2022/10/12 06:12:59;;;;;;;4.85;3.20;;;;;;;6.81;nan;101271.44;5090906;28;20129;-68
2022/10/12 06:15:24;;;;;;;4.47;2.90;;;;;;;6.81;nan;101267.00;5090755;28;20043;-67
2022/10/12 06:17:50;;;;;;;7.03;2.88;;;;;;;6.81;nan;101271.44;5090578;28;20047;-68
2022/10/12 06:20:15;;;;;;;5.30;2.92;;;;;;;6.79;nan;101271.56;5090095;28;20090;-67
2022/10/12 06:22:40;;;;;;;6.78;2.83;;;;;;;6.77;nan;101270.81;5086067;28;20025;-67
2022/10/12 06:25:06;;;;;;;5.38;2.92;;;;;;;6.78;nan;101266.41;5091336;28;20063;-67
2022/10/12 06:27:31;;;;;;;5.15;3.15;;;;;;;6.78;nan;101267.22;5090020;28;20039;-68
2022/10/12 06:29:56;;;;;;;5.32;3.30;;;;;;;6.80;nan;101273.22;5090275;28;20036;-67
2022/10/12 06:32:22;;;;;;;8.20;3.30;;;;;;;6.84;nan;101270.38;5089251;28;20036;-67
2022/10/12 06:34:47;;;;;;;6.97;3.28;;;;;;;6.88;nan;101271.84;5089976;28;20393;-67
2022/10/12 06:37:12;;;;;;;5.47;3.47;;;;;;;6.93;nan;101269.72;5090089;28;20047;-67
2022/10/12 06:39:37;;;;;;;5.72;2.97;;;;;;;6.99;nan;101270.13;5090046;28;20203;-68
2022/10/12 06:42:03;;;;;;;10.68;3.58;;;;;;;7.06;nan;101270.53;5081731;28;20044;-67
2022/10/12 06:44:28;;;;;;;7.75;3.55;;;;;;;7.14;nan;101273.41;5078318;28;20447;-67
2022/10/12 06:46:53;;;;;;;5.85;3.53;;;;;;;7.19;nan;101273.09;5072029;28;20052;-68
2022/10/12 06:49:19;;;;;;;8.63;4.57;;;;;;;7.23;nan;101275.38;5091972;28;20025;-68
2022/10/12 06:51:44;;;;;;;10.45;4.13;;;;;;;7.34;nan;101279.03;5087512;28;20054;-67
2022/10/12 06:54:09;;;;;;;7.82;3.80;;;;;;;7.47;nan;101285.06;5070273;28;20036;-67
2022/10/12 06:56:36;;;;;;;6.05;3.40;;;;;;;7.59;nan;101289.44;5062493;28;20400;-67
2022/10/12 06:59:02;;;;;;;5.75;3.47;;;;;;;7.71;nan;101282.41;5088773;28;20040;-67
2022/10/12 07:01:27;;;;;;;6.00;3.05;;;;;;;7.90;nan;101289.78;5078178;28;20098;-68
2022/10/12 07:03:53;;;;;;;6.25;3.78;;;;;;;8.03;nan;101280.00;5069336;28;20082;-68
2022/10/12 07:06:18;;;;;;;5.35;3.05;;;;;;;8.22;nan;101279.44;5071159;28;20024;-68
2022/10/12 07:08:43;;;;;;;5.32;3.00;;;;;;;8.45;nan;101279.47;5068999;28;20048;-67
2022/10/12 07:11:11;;;;;;;5.03;3.13;;;;;;;8.75;nan;101286.78;5062196;28;20043;-67
2022/10/12 07:13:37;;;;;;;6.15;3.00;;;;;;;8.95;nan;101282.53;5089023;28;20404;-67
2022/10/12 07:16:02;;;;;;;3.88;2.55;;;;;;;9.26;nan;101283.53;5088983;28;20043;-68
2022/10/12 07:18:28;;;;;;;6.82;3.50;;;;;;;9.41;nan;101278.81;5089358;28;20047;-68
2022/10/12 07:20:57;;;;;;;6.07;3.22;;;;;;;9.63;nan;101279.69;5087103;28;20782;-68
2022/10/12 07:23:22;;;;;;;5.18;2.92;;;;;;;9.87;nan;101279.47;5090718;28;20512;-68
2022/10/12 07:25:51;;;;;;;5.28;2.78;;;;;;;10.06;nan;101276.09;5089589;28;20051;-68
2022/10/12 07:28:17;;;;;;;4.63;2.70;;;;;;;10.24;nan;101285.09;5088470;28;20082;-68
2022/10/12 07:30:43;;;;;;;4.53;2.63;;;;;;;10.37;nan;101283.13;5087952;28;20402;-68
2022/10/12 07:33:09;;;;;;;4.40;2.60;;;;;;;10.46;nan;101278.00;5069864;28;20459;-68
2022/10/12 07:35:34;;;;;;;3.53;2.43;;;;;;;10.59;nan;101279.44;5087743;28;20455;-67
2022/10/12 07:37:59;;;;;;;3.23;2.20;;;;;;;10.71;nan;101287.31;5087926;28;20398;-67
2022/10/12 07:40:25;;;;;;;4.10;2.30;;;;;;;10.88;nan;101294.59;5068897;28;20405;-68
2022/10/12 07:42:51;;;;;;;4.60;2.70;;;;;;;11.09;nan;101288.38;5087467;28;20402;-68
2022/10/12 07:45:16;;;;;;;7.57;3.15;;;;;;;11.06;nan;101284.19;5089731;28;20536;-68
2022/10/12 07:47:41;;;;;;;7.57;4.55;;;;;;;11.03;nan;101285.28;5071760;28;20101;-68
2022/10/12 07:50:08;;;;;;;;;;;;;;;10.89;nan;101283.03;5083534;28;20070;-69
2022/10/12 07:52:34;;;;;;;8.73;4.65;;;;;;;10.88;nan;101281.34;5088814;28;19923;-68
2022/10/12 07:55:00;;;;;;;7.13;4.22;;;;;;;10.99;nan;101280.44;5088791;28;20151;-69
2022/10/12 07:57:25;;;;;;;5.75;3.53;;;;;;;11.45;nan;101276.28;5070467;28;20500;-69
2022/10/12 07:59:50;;;;;;;6.85;3.35;;;;;;;11.79;nan;101278.50;5088893;28;20024;-68
2022/10/12 08:02:16;;;;;;;6.30;3.25;;;;;;;12.05;nan;101279.59;5088616;28;20036;-68
2022/10/12 08:04:41;;;;;;;6.13;3.50;;;;;;;12.41;nan;101274.47;5088568;28;20737;-69
2022/10/12 08:07:06;;;;;;;5.90;3.63;;;;;;;12.36;nan;101278.56;5054325;28;20039;-68
2022/10/12 08:09:34;;;;;;;3.67;2.70;;;;;;;12.51;nan;101275.28;5067093;28;20407;-69
2022/10/12 08:12:00;;;;;;;6.70;3.50;;;;;;;12.46;nan;101272.22;5068533;28;20362;-68
2022/10/12 08:14:25;;;;;;;4.82;3.28;;;;;;;12.63;nan;101278.59;5066694;28;20395;-68
2022/10/12 08:16:50;;;;;;;7.30;3.65;;;;;;;12.46;nan;101272.22;5073240;28;20492;-68
2022/10/12 08:19:15;;;;;;;7.90;3.60;;;;;;;12.65;nan;101275.78;5088374;28;20685;-69
2022/10/12 08:21:41;;;;;;;;;;;;;;;13.27;nan;101281.28;5095846;28;20038;-69
2022/10/12 08:24:07;;;;;;;;;;;;;;;13.91;nan;101282.88;5094833;28;19991;-69
2022/10/12 08:26:32;;;;;;;;;;;;;;;14.26;nan;101277.63;5054391;28;19931;-69
2022/10/12 08:28:57;;;;;;;;;;;;;;;14.52;nan;101277.59;5088761;28;19958;-69
2022/10/12 08:31:23;;;;;;;6.77;3.50;;;;;;;14.64;nan;101282.50;5088834;28;20007;-68
2022/10/12 08:33:48;;;;;;;5.53;2.70;;;;;;;14.93;nan;101281.28;5088535;28;20397;-69
2022/10/12 08:36:13;;;;;;;4.83;2.80;;;;;;;15.11;nan;101280.31;5087844;28;20428;-69
2022/10/12 08:38:39;;;;;;;3.93;2.13;;;;;;;14.96;nan;101286.25;5087620;28;20395;-68
2022/10/12 08:41:25;;;;;;;5.65;2.60;;;;;;;14.50;nan;101276.91;5089383;28;20047;-69
2022/10/12 08:44:18;;;;;;;4.50;2.80;;;;;;;14.00;nan;101284.59;5086344;28;20402;-69
2022/10/12 08:46:44;;;;;;;3.53;2.20;;;;;;;13.76;nan;101282.59;5086651;28;20410;-68
2022/10/12 08:49:18;;;;;;;3.70;2.10;;;;;;;13.93;nan;101282.72;5086178;28;20435;-68
2022/10/12 08:51:50;;;;;;;4.20;2.70;;;;;;;13.88;nan;101277.88;5068011;28;20813;-69
2022/10/12 08:54:19;;;;;;;3.53;2.40;;;;;;;14.14;nan;101283.19;5082894;28;20466;-69
2022/10/12 08:56:45;;;;;;;5.70;3.10;;;;;;;14.46;nan;101276.38;5065885;28;20119;-69
2022/10/12 08:59:15;;;;;;;5.57;2.90;;;;;;;;;;5083174;28;20124;-69
2022/10/12 09:01:43;;;;;;;7.22;3.20;;;;;;;;;;5085063;28;20607;-69
2022/10/12 09:04:21;;;;;;;;;;;;;;;16.56;nan;101071.31;5068999;28;20037;-69
2022/10/12 09:06:46;;;;;;;;;;;;;;;17.26;nan;101286.78;5088927;28;20136;-69
2022/10/12 09:09:30;;;;;;;;;;;;;;;17.70;nan;101291.47;5087518;28;19916;-69
2022/10/12 09:12:05;;;;;;;;;;;;;;;18.38;nan;101292.34;5066734;28;19932;-69
2022/10/12 09:14:32;;;;;;;;;;;;;;;18.88;nan;101288.09;5067171;28;19912;-69
2022/10/12 09:16:59;;;;;;;;;;;;;;;18.92;nan;101293.06;5072554;28;19920;-69
2022/10/12 09:19:29;;;;;;;;;;;;;;;18.18;nan;101293.91;5074351;28;19916;-69
2022/10/12 09:21:56;;;;;;;4.55;2.78;;;;;;;17.41;nan;101292.19;5084070;28;19965;-70
2022/10/12 09:24:25;;;;;;;10.02;3.38;;;;;;;16.78;nan;101286.03;5100076;28;20566;-69
2022/10/12 09:26:56;;;;;;;5.57;3.00;;;;;;;16.09;nan;101283.88;5093056;28;20070;-68
2022/10/12 09:29:27;;;;;;;6.10;2.97;;;;;;;15.90;nan;101295.75;5087011;28;20448;-69
2022/10/12 09:32:04;;;;;;;6.05;3.08;;;;;;;15.69;nan;101296.22;5068825;28;20556;-69
2022/10/12 09:34:29;;;;;;;;;;;;;;;15.45;nan;101293.53;5083793;28;20071;-69
2022/10/12 09:36:54;;;;;;;;;;;;;;;15.33;nan;101293.03;5067171;28;20329;-69
2022/10/12 09:39:29;;;;;;;;;;;;;;;15.50;nan;101299.22;5067071;28;19920;-69
2022/10/12 09:41:55;;;;;;;;;;;;;;;15.51;nan;101296.34;5067347;28;19912;-68
2022/10/12 09:44:39;;;;;;;;;;;;;;;15.53;nan;101288.22;5066796;28;20285;-69
2022/10/12 09:47:27;;;;;;;;;;;;;;;15.47;nan;101296.88;5067278;28;19955;-69
2022/10/12 09:49:57;;;;;;;;;;;;;;;15.62;nan;101295.22;5105000;28;20002;-68
2022/10/12 09:52:25;;;;;;;;;;;;;;;15.72;nan;101289.75;5107464;28;20384;-69
2022/10/12 09:54:52;;;;;;;;;;;;;;;15.46;nan;101288.03;5093768;28;20316;-69
2022/10/12 09:57:23;;;;;;;;;;;;;;;15.36;nan;101287.34;5056193;28;20353;-68
2022/10/12 09:59:49;;;;;;;4.13;2.60;;;;;;;15.75;nan;101281.41;5075020;28;20269;-70
2022/10/12 10:02:23;;;;;;;5.47;2.55;;;;;;;16.21;nan;101283.50;5085190;28;20402;-68
2022/10/12 10:04:49;;;;;;;3.95;2.50;;;;;;;16.40;nan;101279.63;5091367;28;20082;-68
2022/10/12 10:07:32;;;;;;;4.85;2.90;;;;;;;16.83;nan;101291.69;5089111;28;20820;-68
2022/10/12 10:10:14;;;;;;;4.65;2.45;;;;;;;17.03;nan;101288.59;5088783;28;20772;-68
2022/10/12 10:12:47;;;;;;;3.28;2.10;;;;;;;17.08;nan;101286.22;5081644;28;20389;-68
2022/10/12 10:15:26;;;;;;;4.40;2.67;;;;;;;17.03;nan;101280.56;5089273;28;20387;-69
2022/10/12 10:17:55;;;;;;;3.78;2.00;;;;;;;16.97;nan;101282.09;5066692;28;20872;-68
2022/10/12 10:20:42;;;;;;;5.07;2.78;;;;;;;16.94;nan;101287.78;5076313;28;20047;-68
2022/10/12 10:23:30;;;;;;;5.13;2.70;;;;;;;16.94;nan;101277.94;5105485;28;20522;-69
2022/10/12 10:26:04;;;;;;;;;;;;;;;17.02;nan;101281.56;5110939;28;20128;-68
2022/10/12 10:28:33;;;;;;;;;;;;;;;16.89;nan;101282.16;5088475;28;20445;-68
2022/10/12 10:31:06;;;;;;;;;;;;;;;16.72;nan;101276.84;5090652;28;20371;-68
2022/10/12 10:33:34;;;;;;;5.57;3.55;;;;;;;16.65;nan;101273.22;5084903;28;19915;-69
2022/10/12 10:36:11;;;;;;;7.78;3.53;;;;;;;16.61;nan;101285.22;5071664;28;20400;-68
2022/10/12 10:39:01;;;;;;;5.80;3.42;;;;;;;16.59;nan;101273.91;5089693;28;20029;-68
2022/10/12 10:41:32;;;;;;;5.28;3.13;;;;;;;16.76;nan;101275.50;5069675;28;20469;-68
2022/10/12 10:43:57;;;;;;;;;;;;;;;16.98;nan;101276.59;5075891;28;20036;-68
2022/10/12 10:46:24;;;;;;;;;;;;;;;17.18;nan;101278.81;5088620;28;19923;-68
2022/10/12 10:48:55;;;;;;;5.68;3.13;;;;;;;17.36;nan;101275.84;5099657;28;19951;-68
2022/10/12 10:51:20;;;;;;;;;;;;;;;17.63;nan;101269.94;5085732;28;20036;-68
2022/10/12 10:53:49;;;;;;;5.43;2.47;;;;;;;17.77;nan;101267.50;5088581;28;19923;-69
2022/10/12 10:56:24;;;;;;;5.95;3.05;;;;;;;17.90;nan;101261.56;5088719;28;20040;-69
2022/10/12 10:58:55;;;;;;;;;;;;;;;17.82;nan;101260.63;5075786;28;20040;-68
2022/10/12 11:01:23;;;;;;;5.25;2.70;;;;;;;18.05;nan;101257.06;5100275;28;19911;-68
2022/10/12 11:04:20;;;;;;;5.47;3.00;;;;;;;17.99;nan;101255.94;5107260;28;20027;-69
2022/10/12 11:06:56;;;;;;;6.40;3.35;;;;;;;18.07;nan;101256.88;5087604;28;20462;-68
2022/10/12 11:09:37;;;;;;;4.22;2.70;;;;;;;18.30;nan;101249.59;5086645;28;20403;-68
2022/10/12 11:12:09;;;;;;;;;;;;;;;18.07;nan;101254.19;5091264;28;20036;-68
2022/10/12 11:14:45;;;;;;;;;;;;;;;17.67;nan;101253.56;5089861;28;20403;-68
2022/10/12 11:17:29;;;;;;;6.10;3.65;;;;;;;17.45;nan;101253.41;5095257;28;19918;-69
2022/10/12 11:20:13;;;;;;;5.45;3.10;;;;;;;17.54;nan;101246.97;5086155;28;20404;-69
2022/10/12 11:22:49;;;;;;;5.70;3.22;;;;;;;17.54;nan;101246.97;5096245;28;20419;-68
2022/10/12 11:25:33;;;;;;;5.07;3.10;;;;;;;17.62;nan;101254.09;5087795;28;20793;-68
2022/10/12 11:27:59;;;;;;;;;;;;;;;17.51;nan;101244.66;5079782;28;20048;-68
2022/10/12 11:30:29;;;;;;;6.78;3.20;;;;;;;17.69;nan;101238.16;5106510;28;19912;-69
2022/10/12 11:33:21;;;;;;;;;;;;;;;17.62;nan;101235.38;5111409;28;20059;-68
2022/10/12 11:35:46;;;;;;;;;;;;;;;17.78;nan;101229.88;5099917;28;20371;-69
2022/10/12 11:38:29;;;;;;;;;;;;;;;18.17;nan;101228.00;5100503;28;19964;-69
2022/10/12 11:40:58;;;;;;;;;;;;;;;18.30;nan;101225.50;5091547;28;19996;-69
2022/10/12 11:43:27;;;;;;;;;;;;;;;18.39;nan;101220.88;5109719;28;20376;-68
2022/10/12 11:45:55;;;;;;;;;;;;;;;18.17;nan;101220.81;5106216;27;19916;-69
2022/10/12 11:48:30;;;;;;;;;;;;;;;18.09;nan;101217.38;5093319;28;19939;-67
2022/10/12 11:50:56;;;;;;;;;;;;;;;18.03;nan;101209.06;5068730;28;19916;-68
2022/10/12 11:53:32;;;;;;;9.52;3.83;;;;;;;17.96;nan;101210.00;5073629;28;20311;-68
2022/10/12 11:56:06;;;;;;;4.20;2.90;;;;;;;18.24;nan;101215.53;5097501;28;20873;-69
2022/10/12 11:58:38;;;;;;;5.32;3.20;;;;;;;18.51;nan;101200.63;5082763;28;20769;-67
2022/10/12 12:01:06;;;;;;;8.02;3.70;;;;;;;18.45;nan;101201.41;5098722;28;20042;-68
2022/10/12 12:03:43;;;;;;;6.50;4.07;;;;;;;18.51;nan;101200.63;5068908;28;20399;-69
2022/10/12 12:06:27;;;;;;;4.38;3.20;;;;;;;18.56;nan;101192.88;5094820;28;20483;-69
2022/10/12 12:08:52;;;;;;;6.63;3.70;;;;;;;18.42;nan;101197.25;5096433;28;20032;-69
2022/10/12 12:11:21;;;;;;;6.07;3.70;;;;;;;18.53;nan;101192.44;5103219;28;20781;-69